Camdenton, MO (65020)

11:35 AM CST on March 01, 2015 (GMT -0600)
Bridal Cave | Change Station
CLOSE
Current Station
Personal Weather Station
Location: Camdenton, MO
Elevation: 719 ft
Nearby Weather Stations

Elev 719 ft 38.02 °N, 92.79 °W | Updated 1 second ago

Overcast
Overcast
29.1 °F
Feels Like 29 °F
N
0.0
Wind Variable Wind from WSW
Gusts 1.0 mph

Today
High -- | Low -- °F
--% Chance of Precip.
Yesterday
High -- | Low -- °F
Precip. -- in
6:43 AM 6:04 PM
Waxing Gibbous, 86% visible
Pressure 30.38 in
Visibility 3.0 miles
Clouds
Windchill 29 °F
Dew Point 28 °F
Humidity 93%
Rainfall 0.00 in
Snow Depth Not available.
UV Not available.
Pollen .60 out of 12
Air Quality Not available.
Flu Activity Not available.
METAR KH21 011715Z AUTO 00000KT 3SM -SN M02/M02 A3038 RMK AO2

More Conditions Fewer Conditions

Pressure 30.38 in
Visibility 3.0 miles
Clouds
Windchill 29 °F
Dew Point 28 °F
Humidity 93%
Rainfall 0.00 in
Snow Depth Not available.
UV Not available.
Pollen .60 out of 12
Air Quality Not available.
Flu Activity Not available.
METAR KH21 011715Z AUTO 00000KT 3SM -SN M02/M02 A3038 RMK AO2

More Conditions Fewer Conditions

10-Day Weather Forecast

Almanac

Astronomy

Mar. 01, 2015 Rise Set
Actual Time
Civil Twilight
Nautical Twilight
Astronomical Twilight
Moon
Length of Visible Light
Length of Day
Tomorrow will be .
, % of the Moon is Illuminated

Today's Extremes

State Highs State Lows

Community

WunderPhotos

Upload Photos

1,801,478 photos uploaded!

WunderBlogs® & News

Nearby

Air Quality

  Air Quality AQ Index Pollutant
Not available.

Snow Depth

Station Depth Elevation

Earthquake Activity

City Distance Mag. Time & Date
Minimum magnitude displayed is 2.5.

Coastal Water Temperatures

Place Temperature

Nearby Weather Stations

Winter Weather Advisory
Statement as of 11:02 AM CST on March 01, 2015

... Winter Weather Advisory remains in effect until 3 PM CST this
afternoon...

A Winter Weather Advisory for snow... sleet and freezing rain
remains in effect until 3 PM CST this afternoon.

* Short term trends... showers of light sleet... light snow... and
light freezing rain will continue through early this afternoon.

* Timing and areas affected... areas generally along and north of
the Interstate 44 corridor through 3 PM.

* Snow and sleet accumulations... additional accumulation of a
dusting up to a half inch.

* Ice accumulations... an additional thin glaze.

* Impacts... slippery roadways will remain likely.

Precautionary/preparedness actions...

A Winter Weather Advisory means that periods of snow... sleet...
or freezing rain will cause travel difficulties. Be prepared for
slippery roads and limited visibilities... and use caution while
driving.